Time;durP1;ratioP1;P1;durP2;ratioP2;P2;SDS_P1;SDS_P2;PMS_P1;PMS_P2;Temp;Humidity;BMP_temperature;BMP_pressure;BME280_temperature;BME280_humidity;BME280_pressure;Samples;Min_cycle;Max_cycle;Signal;HPM_P1;HPM_P2
2023/06/28 00:02:56;;;;;;;;;;;;;;;18.18;51.75977;101945.4;;;;-67
2023/06/28 00:07:56;;;;;;;;;;;;;;;18.18;51.82813;101952.2;;;;-66
2023/06/28 00:12:56;;;;;;;;;;;;;;;18.15;51.9043;101950.1;;;;-67
2023/06/28 00:17:56;;;;;;;;;;;;;;;18.15;52.01758;101948;;;;-67
2023/06/28 00:22:56;;;;;;;;;;;;;;;18.11;52.0127;101939.6;;;;-66
2023/06/28 00:26:15;;;;;;;0.2;0.1;;;;;;;;;;;;;-66
2023/06/28 00:27:56;;;;;;;;;;;;;;;18.11;52.17285;101937.2;;;;-67
2023/06/28 00:32:56;;;;;;;;;;;;;;;18.08;52.61133;101936.3;;;;-65
2023/06/28 00:37:56;;;;;;;;;;;;;;;18.08;52.94043;101937.4;;;;-66
2023/06/28 00:42:56;;;;;;;;;;;;;;;18.04;52.48047;101941.4;;;;-68
2023/06/28 00:47:56;;;;;;;;;;;;;;;17.99;52.99707;101940.3;;;;-67
2023/06/28 00:52:56;;;;;;;;;;;;;;;18.04;52.80957;101936.7;;;;-65
2023/06/28 00:56:18;;;;;;;0.2;0;;;;;;;;;;;;;-67
2023/06/28 00:57:56;;;;;;;;;;;;;;;18.01;52.875;101939.3;;;;-66
2023/06/28 01:02:56;;;;;;;;;;;;;;;17.94;53.55762;101930.1;;;;-66
2023/06/28 01:07:57;;;;;;;;;;;;;;;17.92;53.25;101929.8;;;;-67
2023/06/28 01:12:57;;;;;;;;;;;;;;;17.93;53.75098;101928.4;;;;-68
2023/06/28 01:17:56;;;;;;;;;;;;;;;17.92;53.70313;101930.2;;;;-68
2023/06/28 01:23:01;;;;;;;;;;;;;;;17.88;53.75586;101932.9;;;;-68
2023/06/28 01:26:20;;;;;;;0.2;0;;;;;;;;;;;;;-67
2023/06/28 01:27:56;;;;;;;;;;;;;;;17.87;53.5957;101927.3;;;;-67
2023/06/28 01:32:56;;;;;;;;;;;;;;;17.85;53.78613;101931.3;;;;-66
2023/06/28 01:37:56;;;;;;;;;;;;;;;17.81;53.64453;101929.4;;;;-66
2023/06/28 01:42:56;;;;;;;;;;;;;;;17.79;53.86914;101937;;;;-66
2023/06/28 01:47:56;;;;;;;;;;;;;;;17.74;54.06641;101938.6;;;;-66
2023/06/28 01:52:56;;;;;;;;;;;;;;;17.7;54.47168;101939.1;;;;-65
2023/06/28 01:56:26;;;;;;;0.2;0.1;;;;;;;;;;;;;-66
2023/06/28 01:57:56;;;;;;;;;;;;;;;17.63;54.51953;101935.6;;;;-67
2023/06/28 02:02:56;;;;;;;;;;;;;;;17.62;54.55078;101931.4;;;;-68
2023/06/28 02:07:56;;;;;;;;;;;;;;;17.55;54.52051;101927.1;;;;-66
2023/06/28 02:12:56;;;;;;;;;;;;;;;17.49;54.88672;101928.9;;;;-66
2023/06/28 02:17:58;;;;;;;;;;;;;;;17.47;55.38281;101924.5;;;;-66
2023/06/28 02:22:56;;;;;;;;;;;;;;;17.43;54.9248;101922.9;;;;-67
2023/06/28 02:26:26;;;;;;;0.2;0;;;;;;;;;;;;;-66
2023/06/28 02:27:56;;;;;;;;;;;;;;;17.38;54.91797;101916.8;;;;-66
2023/06/28 02:32:56;;;;;;;;;;;;;;;17.37;55.4834;101914;;;;-66
2023/06/28 02:37:56;;;;;;;;;;;;;;;17.33;55.63672;101907.5;;;;-66
2023/06/28 02:42:56;;;;;;;;;;;;;;;17.3;55.44141;101908;;;;-67
2023/06/28 02:47:56;;;;;;;;;;;;;;;17.27;55.66309;101904.5;;;;-66
2023/06/28 02:52:56;;;;;;;;;;;;;;;17.24;55.96387;101899.6;;;;-65
2023/06/28 02:56:29;;;;;;;1.9;0.2;;;;;;;;;;;;;-66
2023/06/28 02:57:57;;;;;;;;;;;;;;;17.24;56.33789;101894;;;;-66
2023/06/28 03:02:56;;;;;;;;;;;;;;;17.2;56.36816;101897.6;;;;-66
2023/06/28 03:07:56;;;;;;;;;;;;;;;17.18;56.12793;101895.7;;;;-66
2023/06/28 03:12:56;;;;;;;;;;;;;;;17.2;56.87598;101891.2;;;;-65
2023/06/28 03:17:56;;;;;;;;;;;;;;;17.19;56.36523;101886.7;;;;-68
2023/06/28 03:22:56;;;;;;;;;;;;;;;17.18;56.00391;101887.3;;;;-66
2023/06/28 03:26:32;;;;;;;0.2;0;;;;;;;;;;;;;-66
2023/06/28 03:27:56;;;;;;;;;;;;;;;17.21;56.23242;101884.3;;;;-69
2023/06/28 03:32:56;;;;;;;;;;;;;;;17.16;56.53223;101877.4;;;;-68
2023/06/28 03:37:57;;;;;;;;;;;;;;;17.16;56.67871;101873.7;;;;-66
2023/06/28 03:42:56;;;;;;;;;;;;;;;17.14;56.90234;101869.7;;;;-67
2023/06/28 03:47:56;;;;;;;;;;;;;;;17.15;57.26563;101861.9;;;;-66
2023/06/28 03:52:56;;;;;;;;;;;;;;;17.11;57.42969;101857.9;;;;-66
2023/06/28 03:56:34;;;;;;;0.2;0.1;;;;;;;;;;;;;-66
2023/06/28 03:57:56;;;;;;;;;;;;;;;17.13;57.19531;101862.9;;;;-68
2023/06/28 04:02:56;;;;;;;;;;;;;;;17.1;57.47363;101858;;;;-67
2023/06/28 04:07:58;;;;;;;;;;;;;;;17.09;58.17383;101858;;;;-66
2023/06/28 04:12:56;;;;;;;;;;;;;;;17.09;58.35449;101860.3;;;;-66
2023/06/28 04:17:56;;;;;;;;;;;;;;;17.09;58.86328;101856.8;;;;-66
2023/06/28 04:22:56;;;;;;;;;;;;;;;17.13;58.64355;101860.5;;;;-65
2023/06/28 04:26:36;;;;;;;0.2;0;;;;;;;;;;;;;-67
2023/06/28 04:27:56;;;;;;;;;;;;;;;17.11;59.25;101861.1;;;;-66
2023/06/28 04:32:56;;;;;;;;;;;;;;;17.14;59.10645;101862.8;;;;-66
2023/06/28 04:37:56;;;;;;;;;;;;;;;17.1;59.55469;101862;;;;-66
2023/06/28 04:42:56;;;;;;;;;;;;;;;17.11;59.60059;101859;;;;-67
2023/06/28 04:47:56;;;;;;;;;;;;;;;17.15;59.85645;101860.7;;;;-67
2023/06/28 04:52:56;;;;;;;;;;;;;;;17.15;60.2627;101857.4;;;;-66
2023/06/28 04:56:39;;;;;;;0.2;0;;;;;;;;;;;;;-67
2023/06/28 04:57:56;;;;;;;;;;;;;;;17.16;61.13281;101849.7;;;;-67
2023/06/28 05:02:56;;;;;;;;;;;;;;;17.15;60.70215;101850.1;;;;-67
2023/06/28 05:07:59;;;;;;;;;;;;;;;17.18;60.38965;101854.2;;;;-67
2023/06/28 05:12:56;;;;;;;;;;;;;;;17.18;60.96777;101854.7;;;;-67
2023/06/28 05:17:56;;;;;;;;;;;;;;;17.23;60.80371;101851.7;;;;-67
2023/06/28 05:23:06;;;;;;;;;;;;;;;17.24;61.67383;101850.2;;;;-66
2023/06/28 05:26:42;;;;;;;0.2;0;;;;;;;;;;;;;-66
2023/06/28 05:27:56;;;;;;;;;;;;;;;17.29;61.83887;101849.1;;;;-66
2023/06/28 05:32:56;;;;;;;;;;;;;;;17.32;61.96777;101844.9;;;;-66
2023/06/28 05:37:56;;;;;;;;;;;;;;;17.36;61.69238;101841.7;;;;-66
2023/06/28 05:42:58;;;;;;;;;;;;;;;17.39;61.72852;101836.9;;;;-67
2023/06/28 05:47:58;;;;;;;;;;;;;;;17.46;61.64941;101828.6;;;;-67
2023/06/28 05:52:56;;;;;;;;;;;;;;;17.49;62.34277;101824.7;;;;-67
2023/06/28 05:56:46;;;;;;;0.2;0;;;;;;;;;;;;;-65
2023/06/28 05:57:56;;;;;;;;;;;;;;;17.52;61.69238;101828;;;;-67
2023/06/28 06:02:56;;;;;;;;;;;;;;;17.56;61.91211;101823;;;;-68
2023/06/28 06:07:56;;;;;;;;;;;;;;;17.59;61.91602;101830.3;;;;-66
2023/06/28 06:12:57;;;;;;;;;;;;;;;17.6;62.43848;101825.5;;;;-65
2023/06/28 06:17:57;;;;;;;;;;;;;;;17.66;62.46875;101827.3;;;;-67
2023/06/28 06:22:56;;;;;;;;;;;;;;;17.69;62.99414;101825.9;;;;-68
2023/06/28 06:26:47;;;;;;;0.5;0.2;;;;;;;;;;;;;-66
2023/06/28 06:27:57;;;;;;;;;;;;;;;17.72;62.16016;101828.6;;;;-67
2023/06/28 06:32:56;;;;;;;;;;;;;;;17.77;62.64258;101821.1;;;;-67
2023/06/28 06:37:56;;;;;;;;;;;;;;;17.79;63.06445;101824.9;;;;-67
2023/06/28 06:42:56;;;;;;;;;;;;;;;17.86;63.60547;101821.2;;;;-66
2023/06/28 06:47:56;;;;;;;;;;;;;;;17.92;62.99219;101824.8;;;;-67
2023/06/28 06:52:56;;;;;;;;;;;;;;;17.99;63.88184;101827.1;;;;-66
2023/06/28 06:56:50;;;;;;;0.2;0.1;;;;;;;;;;;;;-67
2023/06/28 06:57:56;;;;;;;;;;;;;;;18.06;64.63965;101831.7;;;;-66
2023/06/28 07:02:56;;;;;;;;;;;;;;;18.12;65.2832;101831.2;;;;-66
2023/06/28 07:07:57;;;;;;;;;;;;;;;18.2;65.2373;101833.5;;;;-68
2023/06/28 07:12:56;;;;;;;;;;;;;;;18.24;64.36133;101833.1;;;;-67
2023/06/28 07:17:56;;;;;;;;;;;;;;;18.31;65.52441;101837.6;;;;-66
2023/06/28 07:22:56;;;;;;;;;;;;;;;18.35;65.22656;101840.2;;;;-66
2023/06/28 07:26:53;;;;;;;0.2;0.1;;;;;;;;;;;;;-67
2023/06/28 07:27:56;;;;;;;;;;;;;;;18.4;65.19922;101842.8;;;;-67
2023/06/28 07:32:57;;;;;;;;;;;;;;;18.46;64.73145;101842.7;;;;-66
2023/06/28 07:37:56;;;;;;;;;;;;;;;18.5;64.66016;101841.7;;;;-66
2023/06/28 07:42:58;;;;;;;;;;;;;;;18.53;67.43555;101844.1;;;;-66
2023/06/28 07:47:57;;;;;;;;;;;;;;;18.6;66.24707;101841.5;;;;-66
2023/06/28 07:52:56;;;;;;;;;;;;;;;18.67;65.69043;101843.7;;;;-66
2023/06/28 07:56:56;;;;;;;0.2;0;;;;;;;;;;;;;-65
2023/06/28 07:57:56;;;;;;;;;;;;;;;18.72;65.37012;101849;;;;-66
2023/06/28 08:02:56;;;;;;;;;;;;;;;18.73;67.03711;101852.3;;;;-67
2023/06/28 08:07:56;;;;;;;;;;;;;;;18.77;66.83984;101851.9;;;;-67
2023/06/28 08:12:56;;;;;;;;;;;;;;;18.81;66.87793;101853.3;;;;-67
2023/06/28 08:17:56;;;;;;;;;;;;;;;18.82;66.41699;101850.1;;;;-66
2023/06/28 08:22:57;;;;;;;;;;;;;;;18.86;67.18066;101854.2;;;;-65
2023/06/28 08:26:58;;;;;;;0.2;0;;;;;;;;;;;;;-65
2023/06/28 08:27:56;;;;;;;;;;;;;;;18.91;66.46387;101857.3;;;;-67
2023/06/28 08:32:56;;;;;;;;;;;;;;;18.96;66.3125;101854;;;;-66
2023/06/28 08:37:56;;;;;;;;;;;;;;;19.03;67.58105;101855.9;;;;-68
2023/06/28 08:42:56;;;;;;;;;;;;;;;19.08;67.50781;101860.3;;;;-67
2023/06/28 08:47:57;;;;;;;;;;;;;;;19.12;67.9209;101854.4;;;;-67
2023/06/28 08:52:57;;;;;;;;;;;;;;;19.18;67.39746;101862.2;;;;-66
2023/06/28 08:57:02;;;;;;;0.2;0.1;;;;;;;;;;;;;-67
2023/06/28 08:57:57;;;;;;;;;;;;;;;19.2;67.31055;101859.3;;;;-66
2023/06/28 09:02:56;;;;;;;;;;;;;;;19.24;66.59277;101851.8;;;;-67
2023/06/28 09:07:58;;;;;;;;;;;;;;;19.27;66.49512;101849.5;;;;-67
2023/06/28 09:12:56;;;;;;;;;;;;;;;19.31;67.83691;101849.5;;;;-66
2023/06/28 09:17:56;;;;;;;;;;;;;;;19.39;68.39355;101851.1;;;;-66
2023/06/28 09:23:04;;;;;;;;;;;;;;;19.5;69;101856;;;;-65
2023/06/28 09:27:07;;;;;;;1.1;0.1;;;;;;;;;;;;;-67
2023/06/28 09:27:56;;;;;;;;;;;;;;;19.83;72.26953;101851.9;;;;-67
2023/06/28 09:32:56;;;;;;;;;;;;;;;20.17;71.15723;101846.3;;;;-66
2023/06/28 09:37:58;;;;;;;;;;;;;;;20.45;71.51953;101845.2;;;;-65
2023/06/28 09:42:56;;;;;;;;;;;;;;;20.75;70.71484;101833.3;;;;-67
2023/06/28 09:48:00;;;;;;;;;;;;;;;21.03;71.64551;101832.4;;;;-67
2023/06/28 09:52:59;;;;;;;;;;;;;;;21.42;70.42383;101836.1;;;;-67
2023/06/28 09:57:08;;;;;;;0.3;0.1;;;;;;;;;;;;;-66
2023/06/28 09:57:56;;;;;;;;;;;;;;;21.79;69.67383;101838;;;;-67
2023/06/28 10:02:56;;;;;;;;;;;;;;;22.01;68.77344;101830.3;;;;-68
2023/06/28 10:07:56;;;;;;;;;;;;;;;22.18;68.20703;101831.6;;;;-68
2023/06/28 10:12:57;;;;;;;;;;;;;;;22.33;67.16797;101827;;;;-66
2023/06/28 10:17:57;;;;;;;;;;;;;;;22.6;67.07129;101825.2;;;;-66
2023/06/28 10:22:56;;;;;;;;;;;;;;;22.77;65.93066;101832.7;;;;-67
2023/06/28 10:27:12;;;;;;;1;0.5;;;;;;;;;;;;;-67
2023/06/28 10:27:57;;;;;;;;;;;;;;;22.97;64.9541;101833.7;;;;-65
2023/06/28 10:32:57;;;;;;;;;;;;;;;22.98;66.15723;101827.8;;;;-66
2023/06/28 10:37:59;;;;;;;;;;;;;;;23.06;64.7959;101826.2;;;;-68
2023/06/28 10:42:56;;;;;;;;;;;;;;;22.85;65.79492;101834.1;;;;-67
2023/06/28 10:47:59;;;;;;;;;;;;;;;22.79;66.25391;101839.5;;;;-67
2023/06/28 10:52:58;;;;;;;;;;;;;;;22.68;66.78711;101841.1;;;;-67
2023/06/28 10:57:15;;;;;;;0.7;0.2;;;;;;;;;;;;;-67
2023/06/28 10:58:10;;;;;;;;;;;;;;;22.83;67.58691;101843;;;;-66
2023/06/28 11:03:04;;;;;;;;;;;;;;;22.96;66.25781;101836.4;;;;-65
2023/06/28 11:07:58;;;;;;;;;;;;;;;23.04;65.49121;101835.1;;;;-66
2023/06/28 11:12:56;;;;;;;;;;;;;;;23.18;65.81934;101833;;;;-67
2023/06/28 11:17:56;;;;;;;;;;;;;;;23.36;64.74805;101828.1;;;;-67
2023/06/28 11:22:57;;;;;;;;;;;;;;;23.5;64.59668;101827.1;;;;-68
2023/06/28 11:27:21;;;;;;;0.2;0.1;;;;;;;;;;;;;-67
2023/06/28 11:27:56;;;;;;;;;;;;;;;23.65;63.69043;101829.8;;;;-67
2023/06/28 11:32:56;;;;;;;;;;;;;;;23.78;63.46875;101825;;;;-66
2023/06/28 11:37:56;;;;;;;;;;;;;;;23.9;63.08398;101825.3;;;;-68
2023/06/28 11:42:56;;;;;;;;;;;;;;;23.99;62.70605;101824.4;;;;-67
2023/06/28 11:47:56;;;;;;;;;;;;;;;24.19;62.13672;101824.5;;;;-68
2023/06/28 11:52:56;;;;;;;;;;;;;;;24.3;61.77441;101822.9;;;;-68
2023/06/28 11:57:23;;;;;;;0.7;0.4;;;;;;;;;;;;;-67
2023/06/28 11:57:56;;;;;;;;;;;;;;;24.44;61.28711;101817.2;;;;-66
2023/06/28 12:02:56;;;;;;;;;;;;;;;24.54;61.02637;101823.2;;;;-68
2023/06/28 12:08:00;;;;;;;;;;;;;;;24.61;60.50586;101823.2;;;;-67
2023/06/28 12:12:56;;;;;;;;;;;;;;;24.66;60.50195;101820.9;;;;-66
2023/06/28 12:17:56;;;;;;;;;;;;;;;24.81;59.88867;101826.5;;;;-66
2023/06/28 12:22:58;;;;;;;;;;;;;;;24.94;59.30859;101827.6;;;;-66
2023/06/28 12:27:28;;;;;;;0.5;0.3;;;;;;;;;;;;;-66
2023/06/28 12:28:03;;;;;;;;;;;;;;;25.04;59.11426;101829.9;;;;-67
2023/06/28 12:32:59;;;;;;;;;;;;;;;25.07;58.69336;101827.5;;;;-66
2023/06/28 12:38:01;;;;;;;;;;;;;;;25.09;58.79883;101826.4;;;;-66
2023/06/28 12:43:07;;;;;;;;;;;;;;;25.18;58.23535;101824.3;;;;-67
2023/06/28 12:47:56;;;;;;;;;;;;;;;25.31;58.11328;101819.6;;;;-67
2023/06/28 12:52:56;;;;;;;;;;;;;;;25.45;57.59082;101815.2;;;;-67
2023/06/28 12:57:33;;;;;;;0.2;0.1;;;;;;;;;;;;;-67
2023/06/28 12:57:56;;;;;;;;;;;;;;;25.64;57.01465;101813.2;;;;-68
2023/06/28 13:02:56;;;;;;;;;;;;;;;25.68;57.19336;101809.8;;;;-67
2023/06/28 13:07:57;;;;;;;;;;;;;;;25.77;56.71973;101807.2;;;;-67
2023/06/28 13:12:56;;;;;;;;;;;;;;;25.93;56.87793;101807.1;;;;-67
2023/06/28 13:17:56;;;;;;;;;;;;;;;26.08;56.34375;101805.5;;;;-67
2023/06/28 13:22:56;;;;;;;;;;;;;;;26.31;55.7832;101805.5;;;;-67
2023/06/28 13:27:39;;;;;;;0.3;0.1;;;;;;;;;;;;;-67
2023/06/28 13:27:56;;;;;;;;;;;;;;;26.56;55.31641;101812.9;;;;-67
2023/06/28 13:32:57;;;;;;;;;;;;;;;26.85;54.82031;101806.3;;;;-69
2023/06/28 13:37:56;;;;;;;;;;;;;;;26.74;54.71387;101807.8;;;;-66
2023/06/28 13:42:56;;;;;;;;;;;;;;;26.8;54.29395;101811;;;;-66
2023/06/28 13:47:56;;;;;;;;;;;;;;;27.01;54.3418;101814.9;;;;-67
2023/06/28 13:52:56;;;;;;;;;;;;;;;27.2;54.28418;101812.8;;;;-67
2023/06/28 13:57:42;;;;;;;0.2;0.1;;;;;;;;;;;;;-67
2023/06/28 13:57:56;;;;;;;;;;;;;;;27.45;53.08496;101816.2;;;;-67
2023/06/28 14:02:56;;;;;;;;;;;;;;;27.42;53.64941;101814.2;;;;-70
2023/06/28 14:07:56;;;;;;;;;;;;;;;27.55;53.02832;101815.7;;;;-67
2023/06/28 14:12:56;;;;;;;;;;;;;;;27.43;52.83984;101814.4;;;;-67
2023/06/28 14:17:56;;;;;;;;;;;;;;;27.4;52.83594;101819.8;;;;-66
2023/06/28 14:22:57;;;;;;;;;;;;;;;27.32;52.63086;101817.5;;;;-67
2023/06/28 14:27:48;;;;;;;0.2;0;;;;;;;;;;;;;-67
2023/06/28 14:27:59;;;;;;;;;;;;;;;27.3;52.77832;101814.3;;;;-68
2023/06/28 14:32:56;;;;;;;;;;;;;;;27.38;52.53125;101814.6;;;;-68
2023/06/28 14:38:02;;;;;;;;;;;;;;;27.37;52.26367;101813.7;;;;-67
2023/06/28 14:42:57;;;;;;;;;;;;;;;27.44;51.9375;101813.4;;;;-67
2023/06/28 14:47:56;;;;;;;;;;;;;;;27.48;51.98828;101806.9;;;;-67
2023/06/28 14:52:56;;;;;;;;;;;;;;;27.59;51.58301;101810.5;;;;-66
2023/06/28 14:58:01;;;;;;;0.2;0;;;;;;;;;;;;;-67
2023/06/28 14:58:11;;;;;;;;;;;;;;;27.49;51.75684;101810.5;;;;-70
2023/06/28 15:02:56;;;;;;;;;;;;;;;27.63;51.40137;101806.3;;;;-69
2023/06/28 15:07:56;;;;;;;;;;;;;;;27.59;51.23535;101800.9;;;;-68
2023/06/28 15:12:56;;;;;;;;;;;;;;;27.7;51.62988;101804.9;;;;-66
2023/06/28 15:17:56;;;;;;;;;;;;;;;27.88;51;101797.4;;;;-68
2023/06/28 15:22:56;;;;;;;;;;;;;;;28.05;50.64746;101792.4;;;;-66
2023/06/28 15:27:56;;;;;;;;;;;;;;;27.97;50.83691;101788.5;;;;-67
2023/06/28 15:28:06;;;;;;;0.2;0;;;;;;;;;;;;;-67
2023/06/28 15:32:56;;;;;;;;;;;;;;;28.02;50.36621;101790.6;;;;-68
2023/06/28 15:37:56;;;;;;;;;;;;;;;27.99;50.39746;101786.2;;;;-66
2023/06/28 15:42:56;;;;;;;;;;;;;;;27.84;50.60254;101783.4;;;;-68
2023/06/28 15:47:56;;;;;;;;;;;;;;;27.93;50.7168;101790.5;;;;-68
2023/06/28 15:52:56;;;;;;;;;;;;;;;27.87;50.75488;101786;;;;-67
2023/06/28 15:57:56;;;;;;;;;;;;;;;27.78;50.80273;101793.4;;;;-68
2023/06/28 15:58:06;;;;;;;0.2;0;;;;;;;;;;;;;-68
2023/06/28 16:02:56;;;;;;;;;;;;;;;27.73;50.55371;101784.8;;;;-67
2023/06/28 16:07:56;;;;;;;;;;;;;;;27.74;50.7998;101780;;;;-68
2023/06/28 16:12:56;;;;;;;;;;;;;;;27.76;50.44238;101774.8;;;;-68
2023/06/28 16:17:56;;;;;;;;;;;;;;;27.72;50.49512;101776.4;;;;-67
2023/06/28 16:22:56;;;;;;;;;;;;;;;27.66;50.97559;101773.7;;;;-69
2023/06/28 16:27:57;;;;;;;;;;;;;;;27.59;50.92188;101768.2;;;;-69
2023/06/28 16:28:07;;;;;;;0.2;0;;;;;;;;;;;;;-69
2023/06/28 16:32:57;;;;;;;;;;;;;;;27.69;51.11816;101764.8;;;;-68
2023/06/28 16:37:56;;;;;;;;;;;;;;;27.73;50.58887;101761.6;;;;-67
2023/06/28 16:42:56;;;;;;;;;;;;;;;27.74;50.38184;101755.5;;;;-70
2023/06/28 16:47:56;;;;;;;;;;;;;;;27.66;50.40723;101761.5;;;;-69
2023/06/28 16:52:56;;;;;;;;;;;;;;;27.67;50.24609;101757.8;;;;-68
2023/06/28 16:57:57;;;;;;;;;;;;;;;27.65;50.01074;101758.1;;;;-71
2023/06/28 16:58:12;;;;;;;0.2;0;;;;;;;;;;;;;-70
2023/06/28 17:02:56;;;;;;;;;;;;;;;27.59;49.90039;101756.6;;;;-68
2023/06/28 17:07:56;;;;;;;;;;;;;;;27.56;49.90918;101754.5;;;;-68
2023/06/28 17:12:56;;;;;;;;;;;;;;;27.51;49.69434;101758.4;;;;-69
2023/06/28 17:17:58;;;;;;;;;;;;;;;27.43;50.0332;101757.2;;;;-70
2023/06/28 17:22:56;;;;;;;;;;;;;;;27.35;49.79199;101745.5;;;;-69
2023/06/28 17:27:56;;;;;;;;;;;;;;;27.34;49.75684;101749.7;;;;-69
2023/06/28 17:28:20;;;;;;;0.2;0;;;;;;;;;;;;;-70
2023/06/28 17:32:58;;;;;;;;;;;;;;;27.29;50.00586;101744.1;;;;-70
2023/06/28 17:37:56;;;;;;;;;;;;;;;27.21;49.80078;101748;;;;-69
2023/06/28 17:42:57;;;;;;;;;;;;;;;27.13;50.02344;101755.4;;;;-68
2023/06/28 17:47:57;;;;;;;;;;;;;;;27;50.25293;101753.1;;;;-69
2023/06/28 17:52:56;;;;;;;;;;;;;;;26.83;50.31445;101752.5;;;;-69
2023/06/28 17:57:56;;;;;;;;;;;;;;;26.62;50.54688;101748.6;;;;-70
2023/06/28 17:58:22;;;;;;;0.4;0.2;;;;;;;;;;;;;-69
2023/06/28 18:02:56;;;;;;;;;;;;;;;26.45;50.89746;101757.7;;;;-69
2023/06/28 18:07:56;;;;;;;;;;;;;;;26.3;51.05371;101759.8;;;;-69
2023/06/28 18:12:56;;;;;;;;;;;;;;;26.18;51.16797;101761.4;;;;-69
2023/06/28 18:17:56;;;;;;;;;;;;;;;26.07;51.13184;101764.8;;;;-69
2023/06/28 18:22:56;;;;;;;;;;;;;;;25.96;51.30469;101767.5;;;;-70
2023/06/28 18:27:56;;;;;;;;;;;;;;;25.87;51.375;101774.4;;;;-69
2023/06/28 18:28:27;;;;;;;0.4;0.2;;;;;;;;;;;;;-70
2023/06/28 18:32:56;;;;;;;;;;;;;;;25.77;51.2373;101772.4;;;;-70
2023/06/28 18:37:56;;;;;;;;;;;;;;;25.65;51.44336;101773.2;;;;-69
2023/06/28 18:42:56;;;;;;;;;;;;;;;25.55;51.45313;101770.9;;;;-70
2023/06/28 18:47:57;;;;;;;;;;;;;;;25.38;51.76953;101770;;;;-69
2023/06/28 18:52:56;;;;;;;;;;;;;;;25.23;52.2373;101763.4;;;;-68
2023/06/28 18:57:58;;;;;;;;;;;;;;;25.19;51.76953;101759;;;;-66
2023/06/28 18:58:36;;;;;;;0.3;0.1;;;;;;;;;;;;;-68
2023/06/28 19:02:56;;;;;;;;;;;;;;;25.11;51.42676;101758.3;;;;-67
2023/06/28 19:07:56;;;;;;;;;;;;;;;24.98;51.68945;101752.9;;;;-66
2023/06/28 19:12:56;;;;;;;;;;;;;;;24.88;51.25098;101757.5;;;;-66
2023/06/28 19:17:56;;;;;;;;;;;;;;;24.76;51.20313;101756.9;;;;-68
2023/06/28 19:22:57;;;;;;;;;;;;;;;24.65;51.32813;101754.5;;;;-67
2023/06/28 19:27:56;;;;;;;;;;;;;;;24.53;50.93457;101750.5;;;;-67
2023/06/28 19:28:38;;;;;;;0.2;0;;;;;;;;;;;;;-66
2023/06/28 19:32:56;;;;;;;;;;;;;;;24.42;50.91016;101747.2;;;;-66
2023/06/28 19:37:56;;;;;;;;;;;;;;;24.29;50.97656;101743.3;;;;-66
2023/06/28 19:42:56;;;;;;;;;;;;;;;24.17;51.10059;101741.4;;;;-67
2023/06/28 19:47:57;;;;;;;;;;;;;;;24.06;51.18066;101745.6;;;;-65
2023/06/28 19:52:56;;;;;;;;;;;;;;;23.93;50.78613;101753.1;;;;-66
2023/06/28 19:58:40;;;;;;;1.1;0.1;;;;;;;;;;;;;-66
2023/06/28 20:02:46;;;;;;;;;;;;;;;23.7;51.30078;101751.8;;;;-67
2023/06/28 20:07:45;;;;;;;;;;;;;;;23.58;51.67773;101751.7;;;;-66
2023/06/28 20:12:45;;;;;;;;;;;;;;;23.47;52.03125;101754.2;;;;-66
2023/06/28 20:17:47;;;;;;;;;;;;;;;23.34;51.66211;101752.8;;;;-65
2023/06/28 20:22:44;;;;;;;;;;;;;;;23.23;51.75391;101753.7;;;;-66
2023/06/28 20:27:45;;;;;;;;;;;;;;;23.12;51.80762;101751.5;;;;-65
2023/06/28 20:28:44;;;;;;;0.2;0;;;;;;;;;;;;;-67
2023/06/28 20:32:45;;;;;;;;;;;;;;;23.02;52.26758;101747.4;;;;-67
2023/06/28 20:37:47;;;;;;;;;;;;;;;22.93;52.76172;101743.4;;;;-66
2023/06/28 20:42:45;;;;;;;;;;;;;;;22.83;52.01563;101742;;;;-68
2023/06/28 20:47:48;;;;;;;;;;;;;;;22.76;52.31738;101749.6;;;;-66
2023/06/28 20:52:48;;;;;;;;;;;;;;;22.67;53.25879;101749.6;;;;-67
2023/06/28 20:57:47;;;;;;;;;;;;;;;22.59;52.48145;101752;;;;-66
2023/06/28 20:58:50;;;;;;;0.2;0.1;;;;;;;;;;;;;-66
2023/06/28 21:02:45;;;;;;;;;;;;;;;22.52;52.40332;101757.5;;;;-67
2023/06/28 21:07:45;;;;;;;;;;;;;;;22.44;52.89941;101757;;;;-69
2023/06/28 21:12:48;;;;;;;;;;;;;;;22.37;52.69727;101751.8;;;;-68
2023/06/28 21:17:47;;;;;;;;;;;;;;;22.32;52.97559;101744.9;;;;-69
2023/06/28 21:22:47;;;;;;;;;;;;;;;22.25;52.8877;101741.9;;;;-68
2023/06/28 21:27:46;;;;;;;;;;;;;;;22.19;53.28223;101740.4;;;;-67
2023/06/28 21:28:51;;;;;;;0.4;0.2;;;;;;;;;;;;;-68
2023/06/28 21:32:47;;;;;;;;;;;;;;;22.13;53.10156;101739.7;;;;-69
2023/06/28 21:37:49;;;;;;;;;;;;;;;22.06;53.3125;101735.5;;;;-68
2023/06/28 21:42:45;;;;;;;;;;;;;;;21.98;54.0127;101733.5;;;;-68
2023/06/28 21:47:45;;;;;;;;;;;;;;;21.92;53.82227;101735.6;;;;-69
2023/06/28 21:52:44;;;;;;;;;;;;;;;21.87;53.9873;101731.6;;;;-69
2023/06/28 21:57:44;;;;;;;;;;;;;;;21.8;54.01367;101730.9;;;;-67
2023/06/28 21:58:55;;;;;;;0.4;0.3;;;;;;;;;;;;;-69
2023/06/28 22:02:44;;;;;;;;;;;;;;;21.75;54.52246;101729;;;;-69
2023/06/28 22:07:44;;;;;;;;;;;;;;;21.69;54.22949;101722.1;;;;-67
2023/06/28 22:12:47;;;;;;;;;;;;;;;21.64;54.16602;101716.5;;;;-68
2023/06/28 22:17:45;;;;;;;;;;;;;;;21.58;54.38672;101713.4;;;;-68
2023/06/28 22:22:45;;;;;;;;;;;;;;;21.54;54.38281;101717.8;;;;-68
2023/06/28 22:27:48;;;;;;;;;;;;;;;21.5;54.54785;101714.8;;;;-69
2023/06/28 22:28:58;;;;;;;0.3;0.1;;;;;;;;;;;;;-68
2023/06/28 22:32:48;;;;;;;;;;;;;;;21.46;54.81836;101714.9;;;;-68
2023/06/28 22:37:45;;;;;;;;;;;;;;;21.42;54.76758;101709.9;;;;-69
2023/06/28 22:42:44;;;;;;;;;;;;;;;21.36;54.7041;101701.5;;;;-69
2023/06/28 22:47:45;;;;;;;;;;;;;;;21.33;54.7793;101697.4;;;;-69
2023/06/28 22:52:45;;;;;;;;;;;;;;;21.29;55.11816;101692.4;;;;-69
2023/06/28 22:57:45;;;;;;;;;;;;;;;21.25;55.14746;101688.7;;;;-67
2023/06/28 22:59:02;;;;;;;1.4;0.7;;;;;;;;;;;;;-69
2023/06/28 23:02:44;;;;;;;;;;;;;;;21.21;54.95898;101691.1;;;;-68
2023/06/28 23:07:45;;;;;;;;;;;;;;;21.17;55.02344;101690.5;;;;-69
2023/06/28 23:12:46;;;;;;;;;;;;;;;21.14;55.44238;101684.8;;;;-68
2023/06/28 23:17:47;;;;;;;;;;;;;;;21.1;55.18457;101686.8;;;;-69
2023/06/28 23:22:46;;;;;;;;;;;;;;;21.05;55.25879;101686.2;;;;-69
2023/06/28 23:27:45;;;;;;;;;;;;;;;21.01;55.60742;101681.9;;;;-68
2023/06/28 23:29:05;;;;;;;0.2;0.1;;;;;;;;;;;;;-68
2023/06/28 23:32:48;;;;;;;;;;;;;;;20.98;55.55762;101684.9;;;;-70
2023/06/28 23:37:48;;;;;;;;;;;;;;;20.93;56.00879;101683.2;;;;-68
2023/06/28 23:42:46;;;;;;;;;;;;;;;20.89;56.2998;101682.4;;;;-68
2023/06/28 23:47:45;;;;;;;;;;;;;;;20.86;56.35352;101681.8;;;;-69
2023/06/28 23:52:44;;;;;;;;;;;;;;;20.83;56.65918;101680.4;;;;-69
2023/06/28 23:57:45;;;;;;;;;;;;;;;20.8;56.60742;101680.2;;;;-69
2023/06/28 23:59:10;;;;;;;0.4;0.2;;;;;;;;;;;;;-70
